sensor_id;sensor_type;location;lat;lon;timestamp;P1;durP1;ratioP1;P2;durP2;ratioP2
81651;SDS011;71061;55.714;37.794;2023-09-30T00:00:57;25.60;;;13.95;;
81651;SDS011;71061;55.714;37.794;2023-09-30T00:03:23;21.70;;;12.32;;
81651;SDS011;71061;55.714;37.794;2023-09-30T00:05:50;21.58;;;12.93;;
81651;SDS011;71061;55.714;37.794;2023-09-30T00:08:15;21.60;;;12.27;;
81651;SDS011;71061;55.714;37.794;2023-09-30T00:10:41;19.25;;;12.30;;
81651;SDS011;71061;55.714;37.794;2023-09-30T00:13:07;22.10;;;12.63;;
81651;SDS011;71061;55.714;37.794;2023-09-30T00:15:33;27.60;;;12.55;;
81651;SDS011;71061;55.714;37.794;2023-09-30T00:17:59;32.88;;;12.30;;
81651;SDS011;71061;55.714;37.794;2023-09-30T00:20:27;25.45;;;13.32;;
81651;SDS011;71061;55.714;37.794;2023-09-30T00:22:53;23.00;;;13.18;;
81651;SDS011;71061;55.714;37.794;2023-09-30T00:25:19;22.02;;;11.50;;
81651;SDS011;71061;55.714;37.794;2023-09-30T00:27:46;23.83;;;12.32;;
81651;SDS011;71061;55.714;37.794;2023-09-30T00:30:13;22.60;;;12.25;;
81651;SDS011;71061;55.714;37.794;2023-09-30T00:32:38;18.25;;;11.43;;
81651;SDS011;71061;55.714;37.794;2023-09-30T00:35:05;19.63;;;11.98;;
81651;SDS011;71061;55.714;37.794;2023-09-30T00:37:38;21.40;;;11.23;;
81651;SDS011;71061;55.714;37.794;2023-09-30T00:40:05;21.63;;;11.73;;
81651;SDS011;71061;55.714;37.794;2023-09-30T00:42:31;22.23;;;11.77;;
81651;SDS011;71061;55.714;37.794;2023-09-30T00:44:57;20.42;;;11.38;;
81651;SDS011;71061;55.714;37.794;2023-09-30T00:47:23;20.40;;;10.15;;
81651;SDS011;71061;55.714;37.794;2023-09-30T00:49:49;21.73;;;11.70;;
81651;SDS011;71061;55.714;37.794;2023-09-30T00:52:16;21.67;;;11.45;;
81651;SDS011;71061;55.714;37.794;2023-09-30T00:54:43;23.15;;;11.30;;
81651;SDS011;71061;55.714;37.794;2023-09-30T00:57:09;19.67;;;11.07;;
81651;SDS011;71061;55.714;37.794;2023-09-30T00:59:35;20.50;;;10.40;;
81651;SDS011;71061;55.714;37.794;2023-09-30T01:02:01;19.67;;;10.85;;
81651;SDS011;71061;55.714;37.794;2023-09-30T01:04:27;20.60;;;10.95;;
81651;SDS011;71061;55.714;37.794;2023-09-30T01:06:53;19.25;;;11.27;;
81651;SDS011;71061;55.714;37.794;2023-09-30T01:09:19;20.38;;;11.80;;
81651;SDS011;71061;55.714;37.794;2023-09-30T01:11:45;19.98;;;10.73;;
81651;SDS011;71061;55.714;37.794;2023-09-30T01:14:27;23.63;;;11.00;;
81651;SDS011;71061;55.714;37.794;2023-09-30T01:16:54;20.90;;;11.65;;
81651;SDS011;71061;55.714;37.794;2023-09-30T01:19:20;22.40;;;11.52;;
81651;SDS011;71061;55.714;37.794;2023-09-30T01:21:47;21.02;;;11.27;;
81651;SDS011;71061;55.714;37.794;2023-09-30T01:24:14;21.33;;;12.40;;
81651;SDS011;71061;55.714;37.794;2023-09-30T01:26:40;20.80;;;10.73;;
81651;SDS011;71061;55.714;37.794;2023-09-30T01:29:08;25.00;;;12.07;;
81651;SDS011;71061;55.714;37.794;2023-09-30T01:31:36;22.35;;;10.98;;
81651;SDS011;71061;55.714;37.794;2023-09-30T01:34:03;19.75;;;10.95;;
81651;SDS011;71061;55.714;37.794;2023-09-30T01:36:30;26.02;;;12.75;;
81651;SDS011;71061;55.714;37.794;2023-09-30T01:38:56;19.13;;;10.50;;
81651;SDS011;71061;55.714;37.794;2023-09-30T01:41:22;21.77;;;11.02;;
81651;SDS011;71061;55.714;37.794;2023-09-30T01:43:48;20.58;;;11.68;;
81651;SDS011;71061;55.714;37.794;2023-09-30T01:46:14;21.60;;;11.65;;
81651;SDS011;71061;55.714;37.794;2023-09-30T01:48:40;20.90;;;11.88;;
81651;SDS011;71061;55.714;37.794;2023-09-30T01:51:05;20.95;;;11.70;;
81651;SDS011;71061;55.714;37.794;2023-09-30T01:53:31;24.38;;;12.65;;
81651;SDS011;71061;55.714;37.794;2023-09-30T01:55:58;19.75;;;11.32;;
81651;SDS011;71061;55.714;37.794;2023-09-30T01:58:24;19.20;;;11.23;;
81651;SDS011;71061;55.714;37.794;2023-09-30T02:00:51;20.88;;;11.68;;
81651;SDS011;71061;55.714;37.794;2023-09-30T02:03:17;21.58;;;11.98;;
81651;SDS011;71061;55.714;37.794;2023-09-30T02:05:43;19.63;;;10.15;;
81651;SDS011;71061;55.714;37.794;2023-09-30T02:08:09;20.45;;;11.57;;
81651;SDS011;71061;55.714;37.794;2023-09-30T02:10:35;18.85;;;9.98;;
81651;SDS011;71061;55.714;37.794;2023-09-30T02:13:01;18.25;;;11.32;;
81651;SDS011;71061;55.714;37.794;2023-09-30T02:15:31;20.25;;;11.02;;
81651;SDS011;71061;55.714;37.794;2023-09-30T02:17:57;17.77;;;11.35;;
81651;SDS011;71061;55.714;37.794;2023-09-30T02:20:26;20.65;;;10.45;;
81651;SDS011;71061;55.714;37.794;2023-09-30T02:22:55;23.67;;;11.40;;
81651;SDS011;71061;55.714;37.794;2023-09-30T02:25:20;19.73;;;10.80;;
81651;SDS011;71061;55.714;37.794;2023-09-30T02:27:47;19.50;;;11.10;;
81651;SDS011;71061;55.714;37.794;2023-09-30T02:30:14;21.15;;;10.77;;
81651;SDS011;71061;55.714;37.794;2023-09-30T02:32:41;16.80;;;10.30;;
81651;SDS011;71061;55.714;37.794;2023-09-30T02:35:07;22.50;;;11.25;;
81651;SDS011;71061;55.714;37.794;2023-09-30T02:37:36;15.80;;;9.57;;
81651;SDS011;71061;55.714;37.794;2023-09-30T02:40:03;16.98;;;10.98;;
81651;SDS011;71061;55.714;37.794;2023-09-30T02:42:31;21.42;;;10.73;;
81651;SDS011;71061;55.714;37.794;2023-09-30T02:45:00;20.20;;;11.52;;
81651;SDS011;71061;55.714;37.794;2023-09-30T02:47:30;19.52;;;11.50;;
81651;SDS011;71061;55.714;37.794;2023-09-30T02:49:59;20.08;;;11.32;;
81651;SDS011;71061;55.714;37.794;2023-09-30T02:52:25;20.65;;;11.18;;
81651;SDS011;71061;55.714;37.794;2023-09-30T02:54:52;20.05;;;10.52;;
81651;SDS011;71061;55.714;37.794;2023-09-30T02:57:18;17.30;;;9.70;;
81651;SDS011;71061;55.714;37.794;2023-09-30T02:59:44;17.23;;;11.20;;
81651;SDS011;71061;55.714;37.794;2023-09-30T03:02:10;19.67;;;11.05;;
81651;SDS011;71061;55.714;37.794;2023-09-30T03:04:37;17.45;;;10.02;;
81651;SDS011;71061;55.714;37.794;2023-09-30T03:07:03;19.13;;;10.82;;
81651;SDS011;71061;55.714;37.794;2023-09-30T03:09:28;16.60;;;9.68;;
81651;SDS011;71061;55.714;37.794;2023-09-30T03:11:54;19.75;;;9.98;;
81651;SDS011;71061;55.714;37.794;2023-09-30T03:14:21;19.13;;;10.25;;
81651;SDS011;71061;55.714;37.794;2023-09-30T03:16:48;23.38;;;11.52;;
81651;SDS011;71061;55.714;37.794;2023-09-30T03:19:14;18.13;;;11.05;;
81651;SDS011;71061;55.714;37.794;2023-09-30T03:21:42;19.50;;;10.48;;
81651;SDS011;71061;55.714;37.794;2023-09-30T03:24:08;16.50;;;10.38;;
81651;SDS011;71061;55.714;37.794;2023-09-30T03:26:34;19.63;;;10.85;;
81651;SDS011;71061;55.714;37.794;2023-09-30T03:29:00;19.33;;;10.32;;
81651;SDS011;71061;55.714;37.794;2023-09-30T03:31:26;19.92;;;10.50;;
81651;SDS011;71061;55.714;37.794;2023-09-30T03:33:52;16.25;;;10.38;;
81651;SDS011;71061;55.714;37.794;2023-09-30T03:36:20;20.25;;;11.00;;
81651;SDS011;71061;55.714;37.794;2023-09-30T03:38:47;19.88;;;11.00;;
81651;SDS011;71061;55.714;37.794;2023-09-30T03:41:13;16.55;;;10.43;;
81651;SDS011;71061;55.714;37.794;2023-09-30T03:43:39;25.13;;;12.75;;
81651;SDS011;71061;55.714;37.794;2023-09-30T03:46:08;19.95;;;12.00;;
81651;SDS011;71061;55.714;37.794;2023-09-30T03:48:33;21.25;;;11.38;;
81651;SDS011;71061;55.714;37.794;2023-09-30T03:51:12;19.98;;;11.55;;
81651;SDS011;71061;55.714;37.794;2023-09-30T03:53:39;18.58;;;11.27;;
81651;SDS011;71061;55.714;37.794;2023-09-30T03:56:07;17.15;;;10.65;;
81651;SDS011;71061;55.714;37.794;2023-09-30T03:58:33;18.48;;;11.07;;
81651;SDS011;71061;55.714;37.794;2023-09-30T04:00:59;19.75;;;10.48;;
81651;SDS011;71061;55.714;37.794;2023-09-30T04:03:26;20.10;;;11.93;;
81651;SDS011;71061;55.714;37.794;2023-09-30T04:05:53;20.02;;;12.45;;
81651;SDS011;71061;55.714;37.794;2023-09-30T04:08:18;22.70;;;11.95;;
81651;SDS011;71061;55.714;37.794;2023-09-30T04:10:44;19.13;;;11.07;;
81651;SDS011;71061;55.714;37.794;2023-09-30T04:13:10;17.50;;;11.52;;
81651;SDS011;71061;55.714;37.794;2023-09-30T04:15:37;17.88;;;10.30;;
81651;SDS011;71061;55.714;37.794;2023-09-30T04:18:03;21.75;;;11.27;;
81651;SDS011;71061;55.714;37.794;2023-09-30T04:20:30;16.00;;;9.80;;
81651;SDS011;71061;55.714;37.794;2023-09-30T04:22:56;19.35;;;11.10;;
81651;SDS011;71061;55.714;37.794;2023-09-30T04:25:23;25.60;;;13.68;;
81651;SDS011;71061;55.714;37.794;2023-09-30T04:27:50;23.08;;;12.70;;
81651;SDS011;71061;55.714;37.794;2023-09-30T04:30:16;21.75;;;11.77;;
81651;SDS011;71061;55.714;37.794;2023-09-30T04:32:42;23.02;;;11.30;;
81651;SDS011;71061;55.714;37.794;2023-09-30T04:35:09;25.00;;;13.00;;
81651;SDS011;71061;55.714;37.794;2023-09-30T04:37:36;21.50;;;12.52;;
81651;SDS011;71061;55.714;37.794;2023-09-30T04:40:04;23.65;;;12.35;;
81651;SDS011;71061;55.714;37.794;2023-09-30T04:42:33;20.65;;;11.52;;
81651;SDS011;71061;55.714;37.794;2023-09-30T04:45:03;21.70;;;11.73;;
81651;SDS011;71061;55.714;37.794;2023-09-30T04:47:31;25.05;;;14.25;;
81651;SDS011;71061;55.714;37.794;2023-09-30T04:49:57;22.38;;;11.70;;
81651;SDS011;71061;55.714;37.794;2023-09-30T04:52:23;20.05;;;12.13;;
81651;SDS011;71061;55.714;37.794;2023-09-30T04:54:53;24.67;;;14.23;;
81651;SDS011;71061;55.714;37.794;2023-09-30T04:57:18;26.75;;;15.20;;
81651;SDS011;71061;55.714;37.794;2023-09-30T04:59:45;24.45;;;12.70;;
81651;SDS011;71061;55.714;37.794;2023-09-30T05:02:12;24.63;;;11.50;;
81651;SDS011;71061;55.714;37.794;2023-09-30T05:04:41;23.02;;;12.30;;
81651;SDS011;71061;55.714;37.794;2023-09-30T05:07:08;23.70;;;12.52;;
81651;SDS011;71061;55.714;37.794;2023-09-30T05:09:34;17.52;;;10.82;;
81651;SDS011;71061;55.714;37.794;2023-09-30T05:12:00;21.92;;;11.30;;
81651;SDS011;71061;55.714;37.794;2023-09-30T05:14:25;19.02;;;11.10;;
81651;SDS011;71061;55.714;37.794;2023-09-30T05:16:54;19.42;;;11.30;;
81651;SDS011;71061;55.714;37.794;2023-09-30T05:19:21;21.33;;;11.98;;
81651;SDS011;71061;55.714;37.794;2023-09-30T05:21:47;20.42;;;11.82;;
81651;SDS011;71061;55.714;37.794;2023-09-30T05:24:14;19.85;;;12.35;;
81651;SDS011;71061;55.714;37.794;2023-09-30T05:26:44;31.08;;;18.42;;
81651;SDS011;71061;55.714;37.794;2023-09-30T05:29:10;20.20;;;12.05;;
81651;SDS011;71061;55.714;37.794;2023-09-30T05:31:36;19.38;;;11.38;;
81651;SDS011;71061;55.714;37.794;2023-09-30T05:34:02;20.45;;;11.82;;
81651;SDS011;71061;55.714;37.794;2023-09-30T05:36:28;23.63;;;10.65;;
81651;SDS011;71061;55.714;37.794;2023-09-30T05:38:54;18.70;;;11.27;;
81651;SDS011;71061;55.714;37.794;2023-09-30T05:41:20;23.08;;;11.30;;
81651;SDS011;71061;55.714;37.794;2023-09-30T05:43:46;17.15;;;10.95;;
81651;SDS011;71061;55.714;37.794;2023-09-30T05:46:12;22.15;;;11.85;;
81651;SDS011;71061;55.714;37.794;2023-09-30T05:48:38;21.25;;;12.15;;
81651;SDS011;71061;55.714;37.794;2023-09-30T05:51:04;17.52;;;10.77;;
81651;SDS011;71061;55.714;37.794;2023-09-30T05:53:31;21.08;;;12.40;;
81651;SDS011;71061;55.714;37.794;2023-09-30T05:55:58;21.65;;;11.60;;
81651;SDS011;71061;55.714;37.794;2023-09-30T05:58:25;19.55;;;11.00;;
81651;SDS011;71061;55.714;37.794;2023-09-30T06:00:52;19.73;;;12.38;;
81651;SDS011;71061;55.714;37.794;2023-09-30T06:03:18;21.83;;;11.27;;
81651;SDS011;71061;55.714;37.794;2023-09-30T06:05:47;22.05;;;12.02;;
81651;SDS011;71061;55.714;37.794;2023-09-30T06:08:14;20.40;;;11.98;;
81651;SDS011;71061;55.714;37.794;2023-09-30T06:10:40;23.45;;;11.65;;
81651;SDS011;71061;55.714;37.794;2023-09-30T06:13:10;20.92;;;10.85;;
81651;SDS011;71061;55.714;37.794;2023-09-30T06:15:37;19.25;;;11.75;;
81651;SDS011;71061;55.714;37.794;2023-09-30T06:18:06;18.25;;;10.52;;
81651;SDS011;71061;55.714;37.794;2023-09-30T06:20:31;20.50;;;13.57;;
81651;SDS011;71061;55.714;37.794;2023-09-30T06:22:59;20.35;;;12.07;;
81651;SDS011;71061;55.714;37.794;2023-09-30T06:25:26;25.92;;;13.88;;
81651;SDS011;71061;55.714;37.794;2023-09-30T06:27:53;19.63;;;11.50;;
81651;SDS011;71061;55.714;37.794;2023-09-30T06:30:20;17.58;;;11.02;;
81651;SDS011;71061;55.714;37.794;2023-09-30T06:32:46;17.17;;;11.07;;
81651;SDS011;71061;55.714;37.794;2023-09-30T06:35:12;22.50;;;12.43;;
81651;SDS011;71061;55.714;37.794;2023-09-30T06:37:39;22.23;;;11.70;;
81651;SDS011;71061;55.714;37.794;2023-09-30T06:40:06;23.15;;;11.85;;
81651;SDS011;71061;55.714;37.794;2023-09-30T06:42:34;18.42;;;11.50;;
81651;SDS011;71061;55.714;37.794;2023-09-30T06:45:01;23.50;;;10.95;;
81651;SDS011;71061;55.714;37.794;2023-09-30T06:47:32;16.52;;;11.45;;
81651;SDS011;71061;55.714;37.794;2023-09-30T06:50:00;19.48;;;10.10;;
81651;SDS011;71061;55.714;37.794;2023-09-30T06:52:34;16.50;;;10.23;;
81651;SDS011;71061;55.714;37.794;2023-09-30T06:55:01;21.30;;;11.18;;
81651;SDS011;71061;55.714;37.794;2023-09-30T06:57:32;20.27;;;10.15;;
81651;SDS011;71061;55.714;37.794;2023-09-30T06:59:59;23.35;;;11.30;;
81651;SDS011;71061;55.714;37.794;2023-09-30T07:02:24;20.63;;;9.90;;
81651;SDS011;71061;55.714;37.794;2023-09-30T07:04:51;18.58;;;10.60;;
81651;SDS011;71061;55.714;37.794;2023-09-30T07:07:17;19.70;;;9.85;;
81651;SDS011;71061;55.714;37.794;2023-09-30T07:09:43;20.40;;;11.13;;
81651;SDS011;71061;55.714;37.794;2023-09-30T07:12:09;18.95;;;10.55;;
81651;SDS011;71061;55.714;37.794;2023-09-30T07:14:35;21.27;;;12.45;;
81651;SDS011;71061;55.714;37.794;2023-09-30T07:17:01;17.73;;;10.93;;
81651;SDS011;71061;55.714;37.794;2023-09-30T07:19:30;19.00;;;12.10;;
81651;SDS011;71061;55.714;37.794;2023-09-30T07:21:56;20.00;;;10.52;;
81651;SDS011;71061;55.714;37.794;2023-09-30T07:24:25;21.10;;;10.15;;
81651;SDS011;71061;55.714;37.794;2023-09-30T07:26:51;20.52;;;10.15;;
81651;SDS011;71061;55.714;37.794;2023-09-30T07:29:17;23.90;;;11.02;;
81651;SDS011;71061;55.714;37.794;2023-09-30T07:31:42;20.38;;;11.63;;
81651;SDS011;71061;55.714;37.794;2023-09-30T07:34:08;22.88;;;10.95;;
81651;SDS011;71061;55.714;37.794;2023-09-30T07:36:34;20.75;;;11.05;;
81651;SDS011;71061;55.714;37.794;2023-09-30T07:39:00;24.17;;;10.60;;
81651;SDS011;71061;55.714;37.794;2023-09-30T07:41:27;20.30;;;11.48;;
81651;SDS011;71061;55.714;37.794;2023-09-30T07:43:53;18.52;;;10.75;;
81651;SDS011;71061;55.714;37.794;2023-09-30T07:46:18;23.10;;;11.95;;
81651;SDS011;71061;55.714;37.794;2023-09-30T07:48:45;21.85;;;11.27;;
81651;SDS011;71061;55.714;37.794;2023-09-30T07:51:10;19.70;;;10.63;;
81651;SDS011;71061;55.714;37.794;2023-09-30T07:53:38;18.13;;;10.52;;
81651;SDS011;71061;55.714;37.794;2023-09-30T07:56:06;18.58;;;11.60;;
81651;SDS011;71061;55.714;37.794;2023-09-30T07:58:32;21.58;;;11.30;;
81651;SDS011;71061;55.714;37.794;2023-09-30T08:00:58;23.42;;;11.30;;
81651;SDS011;71061;55.714;37.794;2023-09-30T08:03:24;18.88;;;10.60;;
81651;SDS011;71061;55.714;37.794;2023-09-30T08:05:50;22.17;;;10.52;;
81651;SDS011;71061;55.714;37.794;2023-09-30T08:08:16;21.55;;;11.23;;
81651;SDS011;71061;55.714;37.794;2023-09-30T08:10:42;22.25;;;11.35;;
81651;SDS011;71061;55.714;37.794;2023-09-30T08:13:08;21.20;;;11.63;;
81651;SDS011;71061;55.714;37.794;2023-09-30T08:15:35;36.88;;;16.13;;
81651;SDS011;71061;55.714;37.794;2023-09-30T08:18:00;23.42;;;10.75;;
81651;SDS011;71061;55.714;37.794;2023-09-30T08:20:28;26.48;;;10.48;;
81651;SDS011;71061;55.714;37.794;2023-09-30T08:22:54;26.67;;;10.82;;
81651;SDS011;71061;55.714;37.794;2023-09-30T08:25:19;23.15;;;10.30;;
81651;SDS011;71061;55.714;37.794;2023-09-30T08:27:45;22.08;;;9.35;;
81651;SDS011;71061;55.714;37.794;2023-09-30T08:30:15;16.40;;;9.10;;
81651;SDS011;71061;55.714;37.794;2023-09-30T08:32:41;17.65;;;9.52;;
81651;SDS011;71061;55.714;37.794;2023-09-30T08:35:07;16.90;;;9.18;;
81651;SDS011;71061;55.714;37.794;2023-09-30T08:37:33;14.40;;;8.57;;
81651;SDS011;71061;55.714;37.794;2023-09-30T08:39:59;18.70;;;7.00;;
81651;SDS011;71061;55.714;37.794;2023-09-30T08:42:25;15.85;;;8.25;;
81651;SDS011;71061;55.714;37.794;2023-09-30T08:44:57;15.32;;;7.97;;
81651;SDS011;71061;55.714;37.794;2023-09-30T08:47:24;14.50;;;8.35;;
81651;SDS011;71061;55.714;37.794;2023-09-30T08:49:53;12.45;;;7.85;;
81651;SDS011;71061;55.714;37.794;2023-09-30T08:52:22;12.65;;;7.88;;
81651;SDS011;71061;55.714;37.794;2023-09-30T08:54:48;20.75;;;9.35;;
81651;SDS011;71061;55.714;37.794;2023-09-30T08:57:17;13.50;;;8.25;;
81651;SDS011;71061;55.714;37.794;2023-09-30T08:59:45;13.35;;;8.18;;
81651;SDS011;71061;55.714;37.794;2023-09-30T09:02:11;13.95;;;8.32;;
81651;SDS011;71061;55.714;37.794;2023-09-30T09:04:37;14.05;;;8.38;;
81651;SDS011;71061;55.714;37.794;2023-09-30T09:07:03;16.90;;;7.30;;
81651;SDS011;71061;55.714;37.794;2023-09-30T09:09:29;16.83;;;7.60;;
81651;SDS011;71061;55.714;37.794;2023-09-30T09:11:58;12.00;;;7.40;;
81651;SDS011;71061;55.714;37.794;2023-09-30T09:14:40;11.00;;;6.70;;
81651;SDS011;71061;55.714;37.794;2023-09-30T09:17:07;13.68;;;7.45;;
81651;SDS011;71061;55.714;37.794;2023-09-30T09:19:35;14.63;;;8.60;;
81651;SDS011;71061;55.714;37.794;2023-09-30T09:22:03;11.77;;;8.10;;
81651;SDS011;71061;55.714;37.794;2023-09-30T09:27:09;12.70;;;8.57;;
81651;SDS011;71061;55.714;37.794;2023-09-30T09:29:37;16.90;;;8.40;;
81651;SDS011;71061;55.714;37.794;2023-09-30T09:32:08;15.45;;;7.88;;
81651;SDS011;71061;55.714;37.794;2023-09-30T09:34:37;13.13;;;8.20;;
81651;SDS011;71061;55.714;37.794;2023-09-30T09:37:20;14.98;;;8.07;;
81651;SDS011;71061;55.714;37.794;2023-09-30T09:42:28;14.27;;;7.85;;
81651;SDS011;71061;55.714;37.794;2023-09-30T09:44:56;20.85;;;8.73;;
81651;SDS011;71061;55.714;37.794;2023-09-30T09:47:23;15.52;;;7.18;;
81651;SDS011;71061;55.714;37.794;2023-09-30T09:49:50;12.27;;;7.03;;
81651;SDS011;71061;55.714;37.794;2023-09-30T09:52:18;15.90;;;7.90;;
81651;SDS011;71061;55.714;37.794;2023-09-30T09:54:44;11.75;;;6.50;;
81651;SDS011;71061;55.714;37.794;2023-09-30T09:57:11;12.27;;;7.05;;
81651;SDS011;71061;55.714;37.794;2023-09-30T09:59:39;11.00;;;6.88;;
81651;SDS011;71061;55.714;37.794;2023-09-30T10:02:11;11.27;;;6.07;;
81651;SDS011;71061;55.714;37.794;2023-09-30T10:04:41;38.88;;;9.15;;
81651;SDS011;71061;55.714;37.794;2023-09-30T10:07:07;12.77;;;7.38;;
81651;SDS011;71061;55.714;37.794;2023-09-30T10:09:36;13.25;;;7.05;;
81651;SDS011;71061;55.714;37.794;2023-09-30T10:12:03;13.10;;;6.88;;
81651;SDS011;71061;55.714;37.794;2023-09-30T10:14:30;14.20;;;7.57;;
81651;SDS011;71061;55.714;37.794;2023-09-30T10:16:58;11.95;;;8.25;;
81651;SDS011;71061;55.714;37.794;2023-09-30T10:19:24;13.25;;;6.63;;
81651;SDS011;71061;55.714;37.794;2023-09-30T10:24:55;15.73;;;7.55;;
81651;SDS011;71061;55.714;37.794;2023-09-30T10:35:47;20.15;;;8.35;;
81651;SDS011;71061;55.714;37.794;2023-09-30T10:40:58;18.80;;;8.70;;
81651;SDS011;71061;55.714;37.794;2023-09-30T10:43:29;13.57;;;7.57;;
81651;SDS011;71061;55.714;37.794;2023-09-30T10:51:59;13.50;;;8.20;;
81651;SDS011;71061;55.714;37.794;2023-09-30T10:54:27;17.90;;;9.35;;
81651;SDS011;71061;55.714;37.794;2023-09-30T10:56:55;11.65;;;8.48;;
81651;SDS011;71061;55.714;37.794;2023-09-30T10:59:22;15.35;;;8.30;;
81651;SDS011;71061;55.714;37.794;2023-09-30T11:01:49;15.45;;;8.73;;
81651;SDS011;71061;55.714;37.794;2023-09-30T11:04:15;14.52;;;8.05;;
81651;SDS011;71061;55.714;37.794;2023-09-30T11:06:42;13.82;;;8.55;;
81651;SDS011;71061;55.714;37.794;2023-09-30T11:09:08;15.32;;;7.80;;
81651;SDS011;71061;55.714;37.794;2023-09-30T11:11:39;12.30;;;7.72;;
81651;SDS011;71061;55.714;37.794;2023-09-30T11:14:24;14.88;;;7.28;;
81651;SDS011;71061;55.714;37.794;2023-09-30T11:16:53;13.90;;;7.55;;
81651;SDS011;71061;55.714;37.794;2023-09-30T11:19:20;12.43;;;6.65;;
81651;SDS011;71061;55.714;37.794;2023-09-30T11:21:48;14.70;;;7.75;;
81651;SDS011;71061;55.714;37.794;2023-09-30T11:24:15;13.43;;;7.45;;
81651;SDS011;71061;55.714;37.794;2023-09-30T11:26:42;15.23;;;6.88;;
81651;SDS011;71061;55.714;37.794;2023-09-30T11:29:10;13.40;;;7.47;;
81651;SDS011;71061;55.714;37.794;2023-09-30T11:31:39;14.50;;;7.10;;
81651;SDS011;71061;55.714;37.794;2023-09-30T11:34:06;15.82;;;7.55;;
81651;SDS011;71061;55.714;37.794;2023-09-30T11:36:35;14.57;;;8.15;;
81651;SDS011;71061;55.714;37.794;2023-09-30T11:39:01;11.43;;;7.15;;
81651;SDS011;71061;55.714;37.794;2023-09-30T11:41:32;15.65;;;9.18;;
81651;SDS011;71061;55.714;37.794;2023-09-30T11:49:27;11.43;;;7.20;;
81651;SDS011;71061;55.714;37.794;2023-09-30T11:52:08;13.85;;;7.97;;
81651;SDS011;71061;55.714;37.794;2023-09-30T11:54:36;14.85;;;7.28;;
81651;SDS011;71061;55.714;37.794;2023-09-30T11:57:06;14.40;;;7.07;;
81651;SDS011;71061;55.714;37.794;2023-09-30T11:59:36;19.05;;;6.97;;
81651;SDS011;71061;55.714;37.794;2023-09-30T12:02:03;16.88;;;7.28;;
81651;SDS011;71061;55.714;37.794;2023-09-30T12:04:31;13.75;;;7.97;;
81651;SDS011;71061;55.714;37.794;2023-09-30T12:06:57;13.65;;;7.20;;
81651;SDS011;71061;55.714;37.794;2023-09-30T12:09:23;11.82;;;7.05;;
81651;SDS011;71061;55.714;37.794;2023-09-30T12:11:52;12.02;;;7.00;;
81651;SDS011;71061;55.714;37.794;2023-09-30T12:14:19;14.90;;;7.28;;
81651;SDS011;71061;55.714;37.794;2023-09-30T12:16:48;13.85;;;7.75;;
81651;SDS011;71061;55.714;37.794;2023-09-30T12:19:16;14.63;;;8.45;;
81651;SDS011;71061;55.714;37.794;2023-09-30T12:21:43;16.13;;;6.90;;
81651;SDS011;71061;55.714;37.794;2023-09-30T12:24:13;14.10;;;6.32;;
81651;SDS011;71061;55.714;37.794;2023-09-30T12:26:43;13.65;;;7.15;;
81651;SDS011;71061;55.714;37.794;2023-09-30T12:29:14;14.88;;;7.60;;
81651;SDS011;71061;55.714;37.794;2023-09-30T12:31:43;13.10;;;7.63;;
81651;SDS011;71061;55.714;37.794;2023-09-30T12:34:09;11.85;;;7.10;;
81651;SDS011;71061;55.714;37.794;2023-09-30T12:36:35;15.43;;;8.07;;
81651;SDS011;71061;55.714;37.794;2023-09-30T12:39:01;12.18;;;7.20;;
81651;SDS011;71061;55.714;37.794;2023-09-30T12:41:26;14.82;;;7.60;;
81651;SDS011;71061;55.714;37.794;2023-09-30T12:43:54;14.82;;;7.82;;
81651;SDS011;71061;55.714;37.794;2023-09-30T12:46:22;19.00;;;7.18;;
81651;SDS011;71061;55.714;37.794;2023-09-30T12:48:49;13.23;;;7.18;;
81651;SDS011;71061;55.714;37.794;2023-09-30T12:51:15;14.75;;;7.25;;
81651;SDS011;71061;55.714;37.794;2023-09-30T12:53:41;17.05;;;7.47;;
81651;SDS011;71061;55.714;37.794;2023-09-30T12:56:06;11.20;;;6.65;;
81651;SDS011;71061;55.714;37.794;2023-09-30T12:58:32;16.08;;;7.07;;
81651;SDS011;71061;55.714;37.794;2023-09-30T13:00:58;12.57;;;6.43;;
81651;SDS011;71061;55.714;37.794;2023-09-30T13:03:24;16.42;;;7.43;;
81651;SDS011;71061;55.714;37.794;2023-09-30T13:05:50;13.48;;;7.13;;
81651;SDS011;71061;55.714;37.794;2023-09-30T13:08:16;14.60;;;7.95;;
81651;SDS011;71061;55.714;37.794;2023-09-30T13:10:42;18.00;;;8.00;;
81651;SDS011;71061;55.714;37.794;2023-09-30T13:13:09;13.95;;;6.57;;
81651;SDS011;71061;55.714;37.794;2023-09-30T13:15:35;10.52;;;6.57;;
81651;SDS011;71061;55.714;37.794;2023-09-30T13:18:06;13.52;;;7.53;;
81651;SDS011;71061;55.714;37.794;2023-09-30T13:20:32;11.15;;;7.20;;
81651;SDS011;71061;55.714;37.794;2023-09-30T13:22:58;12.20;;;6.88;;
81651;SDS011;71061;55.714;37.794;2023-09-30T13:25:26;18.20;;;7.47;;
81651;SDS011;71061;55.714;37.794;2023-09-30T13:27:52;10.85;;;6.65;;
81651;SDS011;71061;55.714;37.794;2023-09-30T13:30:21;11.13;;;6.50;;
81651;SDS011;71061;55.714;37.794;2023-09-30T13:32:48;10.55;;;6.82;;
81651;SDS011;71061;55.714;37.794;2023-09-30T13:35:24;12.52;;;7.45;;
81651;SDS011;71061;55.714;37.794;2023-09-30T13:37:50;14.27;;;6.88;;
81651;SDS011;71061;55.714;37.794;2023-09-30T13:40:19;11.50;;;6.80;;
81651;SDS011;71061;55.714;37.794;2023-09-30T13:42:48;11.52;;;6.57;;
81651;SDS011;71061;55.714;37.794;2023-09-30T13:45:13;14.75;;;7.38;;
81651;SDS011;71061;55.714;37.794;2023-09-30T13:47:43;12.00;;;6.75;;
81651;SDS011;71061;55.714;37.794;2023-09-30T13:50:09;19.13;;;7.55;;
81651;SDS011;71061;55.714;37.794;2023-09-30T13:52:35;9.63;;;6.55;;
81651;SDS011;71061;55.714;37.794;2023-09-30T13:55:01;12.45;;;7.35;;
81651;SDS011;71061;55.714;37.794;2023-09-30T13:57:30;10.88;;;6.97;;
81651;SDS011;71061;55.714;37.794;2023-09-30T13:59:56;12.82;;;8.15;;
81651;SDS011;71061;55.714;37.794;2023-09-30T14:02:23;12.82;;;6.93;;
81651;SDS011;71061;55.714;37.794;2023-09-30T14:04:52;14.27;;;7.93;;
81651;SDS011;71061;55.714;37.794;2023-09-30T14:07:19;17.40;;;7.57;;
81651;SDS011;71061;55.714;37.794;2023-09-30T14:09:44;12.77;;;6.40;;
81651;SDS011;71061;55.714;37.794;2023-09-30T14:12:10;15.75;;;7.43;;
81651;SDS011;71061;55.714;37.794;2023-09-30T14:14:39;14.73;;;7.82;;
81651;SDS011;71061;55.714;37.794;2023-09-30T14:17:05;13.98;;;7.15;;
81651;SDS011;71061;55.714;37.794;2023-09-30T14:19:36;15.13;;;6.90;;
81651;SDS011;71061;55.714;37.794;2023-09-30T14:22:03;15.60;;;7.95;;
81651;SDS011;71061;55.714;37.794;2023-09-30T14:24:30;16.20;;;8.50;;
81651;SDS011;71061;55.714;37.794;2023-09-30T14:26:58;15.93;;;7.25;;
81651;SDS011;71061;55.714;37.794;2023-09-30T14:29:24;12.63;;;7.28;;
81651;SDS011;71061;55.714;37.794;2023-09-30T14:31:50;16.27;;;7.45;;
81651;SDS011;71061;55.714;37.794;2023-09-30T14:34:17;14.95;;;7.07;;
81651;SDS011;71061;55.714;37.794;2023-09-30T14:36:43;11.43;;;7.43;;
81651;SDS011;71061;55.714;37.794;2023-09-30T14:39:09;15.55;;;8.30;;
81651;SDS011;71061;55.714;37.794;2023-09-30T14:41:35;15.52;;;7.30;;
81651;SDS011;71061;55.714;37.794;2023-09-30T14:44:01;15.88;;;8.15;;